createdAt,value
2023-02-25T00:00:41.551Z,3.32
2023-02-25T00:01:44.518Z,3.36
2023-02-25T00:02:42.651Z,3.34
2023-02-25T00:03:41.577Z,3.36
2023-02-25T00:04:41.500Z,3.31
2023-02-25T00:05:41.483Z,3.34
2023-02-25T00:06:41.474Z,3.34
2023-02-25T00:07:41.462Z,3.40
2023-02-25T00:08:41.447Z,3.42
2023-02-25T00:09:41.436Z,3.40
2023-02-25T00:10:41.420Z,3.31
2023-02-25T00:11:41.412Z,3.34
2023-02-25T00:12:41.421Z,3.32
2023-02-25T00:13:41.390Z,3.36
2023-02-25T00:14:41.364Z,3.31
2023-02-25T00:15:41.374Z,3.34
2023-02-25T00:16:41.402Z,3.34
2023-02-25T00:17:41.336Z,3.31
2023-02-25T00:18:41.310Z,3.26
2023-02-25T00:19:41.304Z,3.21
2023-02-25T00:20:41.317Z,3.23
2023-02-25T00:21:41.271Z,3.22
2023-02-25T00:22:41.286Z,3.19
2023-02-25T00:23:41.243Z,3.19
2023-02-25T00:24:41.246Z,3.21
2023-02-25T00:25:41.224Z,3.18
2023-02-25T00:26:41.209Z,3.16
2023-02-25T00:27:41.199Z,3.14
2023-02-25T00:28:41.207Z,3.14
2023-02-25T00:29:41.178Z,3.19
2023-02-25T00:30:41.314Z,3.19
2023-02-25T00:31:41.419Z,3.22
2023-02-25T00:32:41.247Z,3.23
2023-02-25T00:33:41.119Z,3.23
2023-02-25T00:34:41.101Z,3.28
2023-02-25T00:35:41.087Z,3.23
2023-02-25T00:36:41.148Z,3.25
2023-02-25T00:37:41.060Z,3.23
2023-02-25T00:38:41.064Z,3.22
2023-02-25T00:39:41.088Z,3.25
2023-02-25T00:40:41.028Z,3.31
2023-02-25T00:41:41.018Z,3.32
2023-02-25T00:42:41.007Z,3.31
2023-02-25T00:43:40.987Z,3.29
2023-02-25T00:44:41.000Z,3.36
2023-02-25T00:45:40.955Z,3.29
2023-02-25T00:46:41.033Z,3.29
2023-02-25T00:47:40.931Z,3.32
2023-02-25T00:48:40.941Z,3.32
2023-02-25T00:49:40.906Z,3.29
2023-02-25T00:50:40.894Z,3.34
2023-02-25T00:51:40.884Z,3.40
2023-02-25T00:52:40.869Z,3.41
2023-02-25T00:53:40.858Z,3.41
2023-02-25T00:54:40.837Z,3.42
2023-02-25T00:55:40.828Z,3.41
2023-02-25T00:56:40.816Z,3.41
2023-02-25T00:57:40.804Z,3.42
2023-02-25T00:58:40.782Z,3.44
2023-02-25T00:59:40.774Z,3.47
2023-02-25T01:00:51.317Z,3.45
2023-02-25T01:01:41.815Z,3.47
2023-02-25T01:02:40.804Z,3.51
2023-02-25T01:03:40.714Z,3.53
2023-02-25T01:04:40.713Z,3.51
2023-02-25T01:05:40.698Z,3.53
2023-02-25T01:06:40.683Z,3.59
2023-02-25T01:07:40.668Z,3.58
2023-02-25T01:08:40.663Z,3.59
2023-02-25T01:09:40.637Z,3.59
2023-02-25T01:10:40.617Z,3.50
2023-02-25T01:11:40.605Z,3.58
2023-02-25T01:12:40.591Z,3.56
2023-02-25T01:13:40.635Z,3.56
2023-02-25T01:14:40.580Z,3.51
2023-02-25T01:15:40.564Z,3.55
2023-02-25T01:16:40.583Z,3.58
2023-02-25T01:17:40.538Z,3.59
2023-02-25T01:18:40.563Z,3.58
2023-02-25T01:19:40.500Z,3.60
2023-02-25T01:20:40.519Z,3.56
2023-02-25T01:21:40.484Z,3.53
2023-02-25T01:22:40.456Z,3.53
2023-02-25T01:23:40.450Z,3.58
2023-02-25T01:24:40.437Z,3.55
2023-02-25T01:25:40.430Z,3.50
2023-02-25T01:26:40.406Z,3.50
2023-02-25T01:27:40.401Z,3.50
2023-02-25T01:28:40.390Z,3.48
2023-02-25T01:29:40.375Z,3.47
2023-02-25T01:30:40.413Z,3.44
2023-02-25T01:31:40.579Z,3.45
2023-02-25T01:32:40.616Z,3.42
2023-02-25T01:33:40.324Z,3.44
2023-02-25T01:34:40.308Z,3.48
2023-02-25T01:35:40.294Z,3.48
2023-02-25T01:36:40.278Z,3.44
2023-02-25T01:37:40.257Z,3.41
2023-02-25T01:38:40.251Z,3.36
2023-02-25T01:39:40.247Z,3.37
2023-02-25T01:40:40.224Z,3.41
2023-02-25T01:41:40.207Z,3.37
2023-02-25T01:42:40.201Z,3.41
2023-02-25T01:43:40.180Z,3.42
2023-02-25T01:44:40.166Z,3.40
2023-02-25T01:45:40.163Z,3.41
2023-02-25T01:46:40.222Z,3.41
2023-02-25T01:47:40.127Z,3.41
2023-02-25T01:48:40.149Z,3.44
2023-02-25T01:49:40.119Z,3.44
2023-02-25T01:50:40.099Z,3.44
2023-02-25T01:51:40.084Z,3.40
2023-02-25T01:52:40.062Z,3.42
2023-02-25T01:53:40.046Z,3.42
2023-02-25T01:54:40.070Z,3.45
2023-02-25T01:55:40.060Z,3.45
2023-02-25T01:56:40.016Z,3.45
2023-02-25T01:57:39.998Z,3.44
2023-02-25T01:58:40.027Z,3.48
2023-02-25T01:59:39.969Z,3.48
2023-02-25T02:00:40.023Z,3.45
2023-02-25T02:01:39.945Z,3.47
2023-02-25T02:02:40.078Z,3.48
2023-02-25T02:03:39.924Z,3.48
2023-02-25T02:04:39.935Z,3.45
2023-02-25T02:05:39.902Z,3.47
2023-02-25T02:06:39.878Z,3.47
2023-02-25T02:07:39.865Z,3.47
2023-02-25T02:08:39.866Z,3.44
2023-02-25T02:09:39.856Z,3.40
2023-02-25T02:10:39.834Z,3.36
2023-02-25T02:11:39.823Z,3.41
2023-02-25T02:12:39.809Z,3.42
2023-02-25T02:13:39.788Z,3.41
2023-02-25T02:14:39.780Z,3.42
2023-02-25T02:15:39.762Z,3.41
2023-02-25T02:16:39.776Z,3.42
2023-02-25T02:17:39.745Z,3.45
2023-02-25T02:18:39.720Z,3.47
2023-02-25T02:19:39.711Z,3.47
2023-02-25T02:20:39.724Z,3.40
2023-02-25T02:21:39.692Z,3.45
2023-02-25T02:22:39.668Z,3.42
2023-02-25T02:23:39.651Z,3.42
2023-02-25T02:24:39.641Z,3.42
2023-02-25T02:25:39.630Z,3.44
2023-02-25T02:26:39.614Z,3.42
2023-02-25T02:27:39.630Z,3.44
2023-02-25T02:28:39.598Z,3.45
2023-02-25T02:29:39.593Z,3.45
2023-02-25T02:30:39.633Z,3.44
2023-02-25T02:31:39.691Z,3.42
2023-02-25T02:32:39.602Z,3.44
2023-02-25T02:33:39.527Z,3.45
2023-02-25T02:34:39.518Z,3.44
2023-02-25T02:35:39.503Z,3.41
2023-02-25T02:36:39.599Z,3.44
2023-02-25T02:37:39.485Z,3.44
2023-02-25T02:38:39.458Z,3.47
2023-02-25T02:39:39.448Z,3.41
2023-02-25T02:40:39.451Z,3.47
2023-02-25T02:41:39.416Z,3.44
2023-02-25T02:42:39.414Z,3.47
2023-02-25T02:43:39.397Z,3.45
2023-02-25T02:44:39.383Z,3.44
2023-02-25T02:45:39.409Z,3.34
2023-02-25T02:46:39.348Z,3.32
2023-02-25T02:47:39.357Z,3.29
2023-02-25T02:48:39.339Z,3.36
2023-02-25T02:49:39.328Z,3.32
2023-02-25T02:50:39.293Z,3.31
2023-02-25T02:51:39.287Z,3.31
2023-02-25T02:52:39.308Z,3.36
2023-02-25T02:53:39.256Z,3.34
2023-02-25T02:54:39.274Z,3.34
2023-02-25T02:55:39.242Z,3.36
2023-02-25T02:56:39.234Z,3.37
2023-02-25T02:57:39.206Z,3.41
2023-02-25T02:58:39.195Z,3.37
2023-02-25T02:59:39.217Z,3.37
2023-02-25T03:00:39.183Z,3.41
2023-02-25T03:01:39.156Z,3.40
2023-02-25T03:02:39.134Z,3.36
2023-02-25T03:03:39.227Z,3.37
2023-02-25T03:04:39.126Z,3.36
2023-02-25T03:05:39.102Z,3.31
2023-02-25T03:06:39.083Z,3.31
2023-02-25T03:07:39.076Z,3.28
2023-02-25T03:08:39.093Z,3.28
2023-02-25T03:09:39.046Z,3.21
2023-02-25T03:10:39.042Z,3.23
2023-02-25T03:11:39.025Z,3.22
2023-02-25T03:12:39.003Z,3.22
2023-02-25T03:13:38.997Z,3.25
2023-02-25T03:14:38.988Z,3.22
2023-02-25T03:15:38.969Z,3.19
2023-02-25T03:16:39.006Z,3.16
2023-02-25T03:17:38.943Z,3.19
2023-02-25T03:18:39.360Z,3.18
2023-02-25T03:19:38.914Z,3.19
2023-02-25T03:20:38.917Z,3.18
2023-02-25T03:21:38.897Z,3.18
2023-02-25T03:22:38.879Z,3.13
2023-02-25T03:23:38.872Z,3.13
2023-02-25T03:24:38.881Z,3.14
2023-02-25T03:25:38.836Z,3.16
2023-02-25T03:26:38.826Z,3.08
2023-02-25T03:27:38.817Z,3.07
2023-02-25T03:28:38.816Z,3.07
2023-02-25T03:29:38.798Z,3.08
2023-02-25T03:30:38.873Z,3.04
2023-02-25T03:31:38.947Z,3.04
2023-02-25T03:32:38.872Z,3.07
2023-02-25T03:33:38.749Z,3.04
2023-02-25T03:34:38.721Z,3.08
2023-02-25T03:35:38.708Z,3.07
2023-02-25T03:36:38.700Z,3.08
2023-02-25T03:37:38.687Z,3.05
2023-02-25T03:38:38.679Z,3.08
2023-02-25T03:39:38.670Z,3.04
2023-02-25T03:40:38.670Z,3.01
2023-02-25T03:41:38.638Z,3.05
2023-02-25T03:42:38.619Z,3.05
2023-02-25T03:43:38.616Z,3.07
2023-02-25T03:44:38.600Z,3.10
2023-02-25T03:45:38.643Z,3.10
2023-02-25T03:46:38.585Z,3.10
2023-02-25T03:47:38.557Z,3.10
2023-02-25T03:48:38.552Z,3.13
2023-02-25T03:49:38.526Z,3.14
2023-02-25T03:50:38.513Z,3.19
2023-02-25T03:51:38.506Z,3.13
2023-02-25T03:52:38.503Z,3.11
2023-02-25T03:53:38.486Z,3.13
2023-02-25T03:54:38.474Z,3.10
2023-02-25T03:55:38.446Z,3.08
2023-02-25T03:56:38.462Z,3.04
2023-02-25T03:57:38.421Z,3.10
2023-02-25T03:58:38.423Z,3.10
2023-02-25T03:59:38.390Z,3.10
2023-02-25T04:00:38.377Z,3.04
2023-02-25T04:01:38.367Z,3.05
2023-02-25T04:02:38.417Z,3.05
2023-02-25T04:03:38.340Z,3.07
2023-02-25T04:04:38.427Z,3.01
2023-02-25T04:05:38.318Z,2.98
2023-02-25T04:06:38.295Z,3.07
2023-02-25T04:07:38.286Z,3.05
2023-02-25T04:08:38.275Z,3.04
2023-02-25T04:09:38.266Z,3.04
2023-02-25T04:10:38.276Z,3.05
2023-02-25T04:11:38.229Z,3.05
2023-02-25T04:12:38.248Z,3.08
2023-02-25T04:13:38.211Z,3.05
2023-02-25T04:14:38.206Z,3.04
2023-02-25T04:15:38.208Z,3.03
2023-02-25T04:16:38.158Z,3.04
2023-02-25T04:17:38.151Z,3.07
2023-02-25T04:18:38.152Z,3.10
2023-02-25T04:19:38.131Z,3.07
2023-02-25T04:20:38.111Z,3.07
2023-02-25T04:21:38.103Z,3.10
2023-02-25T04:22:38.079Z,3.16
2023-02-25T04:23:38.067Z,3.21
2023-02-25T04:24:38.065Z,3.18
2023-02-25T04:25:38.048Z,3.18
2023-02-25T04:26:38.040Z,3.11
2023-02-25T04:27:38.026Z,3.14
2023-02-25T04:28:38.022Z,3.16
2023-02-25T04:29:37.993Z,3.16
2023-02-25T04:30:38.062Z,3.07
2023-02-25T04:31:38.128Z,3.00
2023-02-25T04:32:38.088Z,2.97
2023-02-25T04:33:37.942Z,2.92
2023-02-25T04:34:37.936Z,2.89
2023-02-25T04:35:37.907Z,2.90
2023-02-25T04:36:37.905Z,2.87
2023-02-25T04:37:37.905Z,2.92
2023-02-25T04:38:37.873Z,2.95
2023-02-25T04:39:37.870Z,2.93
2023-02-25T04:40:37.840Z,2.93
2023-02-25T04:41:37.840Z,2.97
2023-02-25T04:42:37.814Z,3.00
2023-02-25T04:43:37.798Z,3.00
2023-02-25T04:44:37.824Z,3.00
2023-02-25T04:45:37.779Z,3.00
2023-02-25T04:46:37.841Z,3.00
2023-02-25T04:47:37.755Z,3.04
2023-02-25T04:48:37.734Z,3.01
2023-02-25T04:49:37.728Z,3.00
2023-02-25T04:50:37.721Z,2.93
2023-02-25T04:51:37.698Z,2.97
2023-02-25T04:52:37.677Z,2.93
2023-02-25T04:53:37.672Z,2.95
2023-02-25T04:54:37.653Z,3.00
2023-02-25T04:55:37.651Z,3.00
2023-02-25T04:56:37.635Z,2.95
2023-02-25T04:57:37.622Z,2.95
2023-02-25T04:58:37.629Z,3.03
2023-02-25T04:59:37.594Z,3.00
2023-02-25T05:00:37.617Z,3.05
2023-02-25T05:01:37.589Z,3.08
2023-02-25T05:02:37.561Z,3.08
2023-02-25T05:03:37.547Z,3.05
2023-02-25T05:04:37.666Z,3.05
2023-02-25T05:05:37.518Z,3.05
2023-02-25T05:06:37.513Z,3.04
2023-02-25T05:07:37.495Z,3.01
2023-02-25T05:08:37.484Z,3.05
2023-02-25T05:09:37.471Z,3.03
2023-02-25T05:10:37.459Z,3.04
2023-02-25T05:11:37.449Z,3.04
2023-02-25T05:12:37.433Z,3.01
2023-02-25T05:13:37.412Z,2.98
2023-02-25T05:14:37.418Z,3.00
2023-02-25T05:15:37.394Z,2.98
2023-02-25T05:16:37.435Z,2.92
2023-02-25T05:17:37.363Z,2.90
2023-02-25T05:18:37.356Z,2.85
2023-02-25T05:19:37.352Z,2.82
2023-02-25T05:20:37.380Z,2.79
2023-02-25T05:21:37.315Z,2.83
2023-02-25T05:22:37.305Z,2.85
2023-02-25T05:23:37.286Z,2.87
2023-02-25T05:24:37.281Z,2.89
2023-02-25T05:25:37.258Z,2.90
2023-02-25T05:26:37.257Z,2.89
2023-02-25T05:27:37.244Z,2.92
2023-02-25T05:28:37.220Z,2.90
2023-02-25T05:29:37.257Z,2.85
2023-02-25T05:30:37.206Z,2.79
2023-02-25T05:31:37.357Z,2.77
2023-02-25T05:32:37.397Z,2.72
2023-02-25T05:33:37.165Z,2.75
2023-02-25T05:34:37.140Z,2.75
2023-02-25T05:35:37.130Z,2.74
2023-02-25T05:36:37.121Z,2.75
2023-02-25T05:37:37.109Z,2.74
2023-02-25T05:38:37.104Z,2.75
2023-02-25T05:39:37.077Z,2.75
2023-02-25T05:40:37.073Z,2.74
2023-02-25T05:41:37.052Z,2.75
2023-02-25T05:42:37.042Z,2.79
2023-02-25T05:43:37.040Z,2.77
2023-02-25T05:44:37.025Z,2.77
2023-02-25T05:45:37.000Z,2.75
2023-02-25T05:46:37.026Z,2.77
2023-02-25T05:47:36.982Z,2.74
2023-02-25T05:48:36.996Z,2.77
2023-02-25T05:49:36.965Z,2.74
2023-02-25T05:50:36.945Z,2.74
2023-02-25T05:51:36.932Z,2.71
2023-02-25T05:52:36.923Z,2.69
2023-02-25T05:53:36.904Z,2.68
2023-02-25T05:54:36.895Z,2.69
2023-02-25T05:55:36.879Z,2.72
2023-02-25T05:56:36.869Z,2.77
2023-02-25T05:57:36.862Z,2.74
2023-02-25T05:58:36.833Z,2.79
2023-02-25T05:59:36.854Z,2.82
2023-02-25T06:00:36.818Z,2.77
2023-02-25T06:01:36.894Z,2.75
2023-02-25T06:02:36.789Z,2.74
2023-02-25T06:03:36.786Z,2.72
2023-02-25T06:04:36.793Z,2.74
2023-02-25T06:05:36.754Z,2.74
2023-02-25T06:06:36.734Z,2.75
2023-02-25T06:07:36.729Z,2.75
2023-02-25T06:08:36.709Z,2.77
2023-02-25T06:09:36.702Z,2.79
2023-02-25T06:10:36.683Z,2.77
2023-02-25T06:11:36.666Z,2.77
2023-02-25T06:12:36.686Z,2.75
2023-02-25T06:13:36.646Z,2.80
2023-02-25T06:14:36.628Z,2.79
2023-02-25T06:15:36.624Z,2.79
2023-02-25T06:16:36.668Z,2.80
2023-02-25T06:17:36.589Z,2.80
2023-02-25T06:18:36.888Z,2.82
2023-02-25T06:19:36.583Z,2.83
2023-02-25T06:20:36.590Z,2.85
2023-02-25T06:21:36.545Z,2.80
2023-02-25T06:22:36.536Z,2.82
2023-02-25T06:23:36.514Z,2.80
2023-02-25T06:24:36.509Z,2.86
2023-02-25T06:25:36.514Z,2.89
2023-02-25T06:26:36.487Z,2.83
2023-02-25T06:27:36.480Z,2.86
2023-02-25T06:28:36.471Z,2.86
2023-02-25T06:29:36.437Z,2.77
2023-02-25T06:30:36.486Z,2.77
2023-02-25T06:31:36.506Z,2.77
2023-02-25T06:32:36.557Z,2.74
2023-02-25T06:33:36.402Z,2.77
2023-02-25T06:34:36.387Z,2.75
2023-02-25T06:35:36.375Z,2.75
2023-02-25T06:36:36.383Z,2.72
2023-02-25T06:37:36.344Z,2.71
2023-02-25T06:38:36.337Z,2.71
2023-02-25T06:39:36.328Z,2.72
2023-02-25T06:40:36.310Z,2.64
2023-02-25T06:41:36.295Z,2.65
2023-02-25T06:42:36.284Z,2.62
2023-02-25T06:43:36.282Z,2.56
2023-02-25T06:44:36.253Z,2.62
2023-02-25T06:45:36.260Z,2.68
2023-02-25T06:46:36.244Z,2.65
2023-02-25T06:47:36.251Z,2.64
2023-02-25T06:48:36.213Z,2.57
2023-02-25T06:49:36.191Z,2.53
2023-02-25T06:50:36.184Z,2.56
2023-02-25T06:51:36.175Z,2.53
2023-02-25T06:52:36.187Z,2.56
2023-02-25T06:53:36.145Z,2.57
2023-02-25T06:54:36.129Z,2.60
2023-02-25T06:55:36.116Z,2.56
2023-02-25T06:56:36.119Z,2.62
2023-02-25T06:57:36.096Z,2.68
2023-02-25T06:58:36.123Z,2.72
2023-02-25T06:59:36.097Z,2.74
2023-02-25T07:00:36.072Z,2.77
2023-02-25T07:01:36.109Z,2.75
2023-02-25T07:02:36.037Z,2.74
2023-02-25T07:03:36.042Z,2.77
2023-02-25T07:04:36.090Z,2.87
2023-02-25T07:05:35.997Z,2.87
2023-02-25T07:06:35.987Z,2.89
2023-02-25T07:07:35.965Z,2.92
2023-02-25T07:08:35.977Z,2.87
2023-02-25T07:09:35.944Z,2.89
2023-02-25T07:10:35.926Z,2.87
2023-02-25T07:11:35.913Z,2.82
2023-02-25T07:12:35.908Z,2.79
2023-02-25T07:13:35.886Z,2.80
2023-02-25T07:14:35.881Z,2.72
2023-02-25T07:15:35.931Z,2.69
2023-02-25T07:16:35.857Z,2.72
2023-02-25T07:17:35.856Z,2.74
2023-02-25T07:18:35.837Z,2.72
2023-02-25T07:19:35.811Z,2.68
2023-02-25T07:20:35.806Z,2.62
2023-02-25T07:21:35.787Z,2.64
2023-02-25T07:22:35.785Z,2.62
2023-02-25T07:23:35.767Z,2.67
2023-02-25T07:24:35.771Z,2.67
2023-02-25T07:25:35.742Z,2.72
2023-02-25T07:26:35.736Z,2.74
2023-02-25T07:27:35.711Z,2.83
2023-02-25T07:28:35.725Z,2.82
2023-02-25T07:29:35.693Z,2.86
2023-02-25T07:30:35.673Z,2.92
2023-02-25T07:31:35.754Z,2.93
2023-02-25T07:32:35.779Z,2.92
2023-02-25T07:33:35.652Z,2.89
2023-02-25T07:34:35.633Z,2.93
2023-02-25T07:35:35.619Z,2.87
2023-02-25T07:36:35.606Z,2.90
2023-02-25T07:37:35.596Z,2.95
2023-02-25T07:38:35.575Z,3.00
2023-02-25T07:39:35.578Z,2.98
2023-02-25T07:40:35.595Z,2.95
2023-02-25T07:41:35.558Z,2.98
2023-02-25T07:42:35.535Z,2.93
2023-02-25T07:43:35.530Z,2.93
2023-02-25T07:44:35.513Z,2.89
2023-02-25T07:45:35.505Z,2.92
2023-02-25T07:46:35.592Z,2.92
2023-02-25T07:47:35.477Z,2.95
2023-02-25T07:48:35.459Z,2.98
2023-02-25T07:49:35.442Z,3.03
2023-02-25T07:50:35.431Z,3.05
2023-02-25T07:51:35.420Z,3.22
2023-02-25T07:52:35.407Z,3.37
2023-02-25T07:53:35.404Z,3.48
2023-02-25T07:54:35.392Z,3.68
2023-02-25T07:55:35.385Z,3.88
2023-02-25T07:56:35.391Z,3.94
2023-02-25T07:57:35.352Z,4.13
2023-02-25T07:58:35.341Z,4.49
2023-02-25T07:59:35.321Z,4.70
2023-02-25T08:00:35.318Z,4.99
2023-02-25T08:01:35.334Z,4.90
2023-02-25T08:02:35.344Z,4.77
2023-02-25T08:03:35.285Z,4.92
2023-02-25T08:04:35.306Z,5.30
2023-02-25T08:05:35.248Z,5.44
2023-02-25T08:06:35.239Z,5.28
2023-02-25T08:07:35.240Z,5.23
2023-02-25T08:08:35.211Z,5.18
2023-02-25T08:09:35.202Z,5.15
2023-02-25T08:10:35.223Z,5.15
2023-02-25T08:11:35.189Z,5.08
2023-02-25T08:12:35.177Z,4.92
2023-02-25T08:13:35.143Z,4.80
2023-02-25T08:14:35.143Z,4.56
2023-02-25T08:15:35.158Z,4.45
2023-02-25T08:16:35.098Z,4.30
2023-02-25T08:17:35.137Z,4.16
2023-02-25T08:18:35.088Z,3.99
2023-02-25T08:19:35.066Z,3.83
2023-02-25T08:20:35.047Z,3.77
2023-02-25T08:21:35.043Z,3.77
2023-02-25T08:22:35.033Z,3.77
2023-02-25T08:23:35.055Z,3.60
2023-02-25T08:24:35.037Z,3.36
2023-02-25T08:25:34.986Z,3.26
2023-02-25T08:26:34.991Z,3.22
2023-02-25T08:27:34.973Z,3.22
2023-02-25T08:28:37.137Z,3.21
2023-02-25T08:29:34.946Z,3.19
2023-02-25T08:30:34.993Z,3.22
2023-02-25T08:31:35.068Z,3.23
2023-02-25T08:32:35.100Z,3.19
2023-02-25T08:33:35.003Z,3.21
2023-02-25T08:34:34.881Z,3.23
2023-02-25T08:35:34.884Z,3.22
2023-02-25T08:36:34.852Z,3.19
2023-02-25T08:37:34.838Z,3.14
2023-02-25T08:38:34.830Z,3.14
2023-02-25T08:39:34.819Z,3.18
2023-02-25T08:40:34.798Z,3.13
2023-02-25T08:41:34.792Z,3.11
2023-02-25T08:42:34.781Z,3.13
2023-02-25T08:43:34.777Z,3.18
2023-02-25T08:44:34.776Z,3.25
2023-02-25T08:45:34.741Z,3.23
2023-02-25T08:46:34.895Z,3.14
2023-02-25T08:47:34.714Z,3.18
2023-02-25T08:48:34.703Z,3.11
2023-02-25T08:49:34.684Z,3.11
2023-02-25T08:50:34.671Z,3.10
2023-02-25T08:51:34.942Z,3.11
2023-02-25T08:52:34.677Z,3.11
2023-02-25T08:53:34.647Z,3.16
2023-02-25T08:54:34.624Z,3.22
2023-02-25T08:55:34.602Z,3.44
2023-02-25T08:56:34.594Z,3.60
2023-02-25T08:57:34.579Z,3.65
2023-02-25T08:58:34.575Z,3.98
2023-02-25T08:59:34.548Z,4.17
2023-02-25T09:00:34.638Z,4.30
2023-02-25T09:01:34.521Z,5.08
2023-02-25T09:02:34.506Z,5.23
2023-02-25T09:03:34.503Z,5.18
2023-02-25T09:04:34.598Z,5.50
2023-02-25T09:05:34.491Z,5.97
2023-02-25T09:06:34.462Z,6.62
2023-02-25T09:07:34.453Z,6.93
2023-02-25T09:08:34.440Z,6.38
2023-02-25T09:09:34.433Z,6.11
2023-02-25T09:10:48.277Z,7.10
2023-02-25T09:11:35.418Z,7.18
2023-02-25T09:12:34.373Z,7.60
2023-02-25T09:13:34.374Z,7.98
2023-02-25T09:14:34.347Z,8.67
2023-02-25T09:15:34.342Z,8.74
2023-02-25T09:16:34.416Z,8.45
2023-02-25T09:17:34.317Z,8.84
2023-02-25T09:18:34.295Z,9.00
2023-02-25T09:19:34.295Z,8.78
2023-02-25T09:20:34.273Z,8.03
2023-02-25T09:21:34.260Z,7.45
2023-02-25T09:22:34.246Z,7.13
2023-02-25T09:23:34.224Z,7.69
2023-02-25T09:24:34.228Z,7.43
2023-02-25T09:25:34.213Z,6.97
2023-02-25T09:26:34.195Z,6.77
2023-02-25T09:27:34.173Z,6.33
2023-02-25T09:28:34.191Z,5.94
2023-02-25T09:29:34.156Z,5.64
2023-02-25T09:30:34.147Z,5.50
2023-02-25T09:31:34.253Z,5.17
2023-02-25T09:32:34.368Z,4.97
2023-02-25T09:33:34.093Z,4.70
2023-02-25T09:34:34.090Z,4.71
2023-02-25T09:35:34.074Z,5.05
2023-02-25T09:36:34.061Z,5.23
2023-02-25T09:37:34.037Z,5.15
2023-02-25T09:38:34.033Z,5.00
2023-02-25T09:39:34.010Z,4.92
2023-02-25T09:40:34.007Z,4.86
2023-02-25T09:41:33.991Z,4.84
2023-02-25T09:42:33.978Z,4.80
2023-02-25T09:43:33.976Z,4.84
2023-02-25T09:44:33.966Z,4.78
2023-02-25T09:45:33.954Z,4.73
2023-02-25T09:46:33.921Z,4.71
2023-02-25T09:47:33.958Z,4.66
2023-02-25T09:48:33.931Z,4.66
2023-02-25T09:49:33.886Z,4.66
2023-02-25T09:50:34.063Z,4.73
2023-02-25T09:51:33.867Z,4.80
2023-02-25T09:52:33.837Z,4.87
2023-02-25T09:53:33.838Z,4.82
2023-02-25T09:54:33.835Z,4.86
2023-02-25T09:55:33.813Z,4.82
2023-02-25T09:56:33.797Z,4.74
2023-02-25T09:57:33.791Z,4.78
2023-02-25T09:58:33.761Z,4.77
2023-02-25T09:59:33.758Z,4.87
2023-02-25T10:00:33.738Z,4.94
2023-02-25T10:01:33.738Z,4.96
2023-02-25T10:02:34.062Z,4.86
2023-02-25T10:03:33.804Z,4.75
2023-02-25T10:04:33.721Z,4.74
2023-02-25T10:05:33.690Z,4.74
2023-02-25T10:06:33.670Z,4.67
2023-02-25T10:07:33.647Z,4.66
2023-02-25T10:08:33.633Z,4.63
2023-02-25T10:09:33.623Z,4.49
2023-02-25T10:10:33.600Z,4.37
2023-02-25T10:11:33.599Z,4.32
2023-02-25T10:12:33.586Z,4.32
2023-02-25T10:13:33.570Z,4.35
2023-02-25T10:14:33.568Z,4.40
2023-02-25T10:15:33.547Z,4.45
2023-02-25T10:16:33.631Z,4.90
2023-02-25T10:25:43.758Z,5.26
2023-02-25T10:26:43.727Z,5.25
2023-02-25T10:27:43.705Z,5.38
2023-02-25T10:28:43.700Z,5.72
2023-02-25T10:29:43.696Z,5.99
2023-02-25T10:30:43.751Z,5.82
2023-02-25T10:31:43.952Z,5.79
2023-02-25T10:32:43.777Z,5.68
2023-02-25T10:33:43.635Z,5.61
2023-02-25T10:34:43.625Z,5.66
2023-02-25T10:35:43.614Z,5.48
2023-02-25T10:36:43.596Z,5.36
2023-02-25T10:37:43.579Z,5.28
2023-02-25T10:38:43.566Z,5.23
2023-02-25T10:39:43.548Z,5.15
2023-02-25T10:40:43.554Z,5.07
2023-02-25T10:41:43.547Z,4.86
2023-02-25T10:42:43.520Z,4.77
2023-02-25T10:43:43.507Z,4.74
2023-02-25T10:44:43.482Z,4.67
2023-02-25T10:45:43.466Z,4.59
2023-02-25T10:46:43.466Z,4.56
2023-02-25T10:47:43.448Z,4.56
2023-02-25T10:48:43.422Z,4.44
2023-02-25T10:49:43.424Z,4.40
2023-02-25T10:50:46.294Z,4.45
2023-02-25T10:51:43.381Z,4.49
2023-02-25T10:52:43.387Z,4.52
2023-02-25T10:53:43.352Z,4.55
2023-02-25T10:54:43.343Z,4.62
2023-02-25T10:55:43.351Z,4.50
2023-02-25T10:56:43.322Z,4.44
2023-02-25T10:57:43.332Z,4.34
2023-02-25T10:58:43.294Z,4.19
2023-02-25T10:59:43.291Z,4.14
2023-02-25T11:00:43.267Z,4.14
2023-02-25T11:01:43.287Z,4.24
2023-02-25T11:02:43.340Z,4.30
2023-02-25T11:03:43.220Z,4.45
2023-02-25T11:04:43.232Z,4.66
2023-02-25T11:05:43.200Z,4.74
2023-02-25T11:06:43.192Z,4.92
2023-02-25T11:07:43.173Z,5.02
2023-02-25T11:08:43.149Z,5.04
2023-02-25T11:09:43.138Z,5.12
2023-02-25T11:10:43.141Z,5.05
2023-02-25T11:11:43.120Z,4.96
2023-02-25T11:12:43.113Z,4.84
2023-02-25T11:13:43.107Z,4.86
2023-02-25T11:14:43.108Z,4.78
2023-02-25T11:15:46.474Z,4.78
2023-02-25T11:16:43.124Z,4.80
2023-02-25T11:17:43.034Z,4.82
2023-02-25T11:18:43.046Z,4.74
2023-02-25T11:19:43.012Z,4.70
2023-02-25T11:20:42.989Z,4.63
2023-02-25T11:21:42.990Z,4.59
2023-02-25T11:22:42.959Z,4.66
2023-02-25T11:23:42.962Z,4.71
2023-02-25T11:24:42.942Z,4.77
2023-02-25T11:25:42.924Z,4.70
2023-02-25T11:26:42.907Z,4.71
2023-02-25T11:27:42.908Z,4.73
2023-02-25T11:28:42.881Z,4.70
2023-02-25T11:29:42.895Z,4.74
2023-02-25T11:30:43.048Z,5.00
2023-02-25T11:31:43.203Z,5.23
2023-02-25T11:32:42.905Z,5.26
2023-02-25T11:33:42.814Z,5.44
2023-02-25T11:34:42.798Z,5.38
2023-02-25T11:35:42.803Z,5.29
2023-02-25T11:36:42.789Z,5.17
2023-02-25T11:37:44.706Z,5.10
2023-02-25T11:38:42.760Z,5.10
2023-02-25T11:39:42.737Z,5.07
2023-02-25T11:40:42.736Z,5.07
2023-02-25T11:41:42.709Z,5.02
2023-02-25T11:42:42.698Z,4.94
2023-02-25T11:43:42.702Z,4.92
2023-02-25T11:44:42.667Z,4.92
2023-02-25T11:45:42.686Z,4.97
2023-02-25T11:46:42.676Z,5.00
2023-02-25T11:47:42.636Z,4.97
2023-02-25T11:48:42.610Z,4.99
2023-02-25T11:49:42.874Z,4.92
2023-02-25T11:50:42.590Z,4.92
2023-02-25T11:51:42.589Z,4.86
2023-02-25T11:52:42.565Z,4.87
2023-02-25T11:53:42.600Z,4.86
2023-02-25T11:54:42.539Z,4.75
2023-02-25T11:55:42.519Z,4.71
2023-02-25T11:56:42.508Z,4.62
2023-02-25T11:57:42.513Z,4.55
2023-02-25T11:58:42.478Z,4.41
2023-02-25T11:59:42.507Z,4.40
2023-02-25T12:00:42.460Z,4.35
2023-02-25T12:01:42.474Z,4.38
2023-02-25T12:02:42.490Z,4.45
2023-02-25T12:03:42.411Z,4.45
2023-02-25T12:04:42.402Z,4.49
2023-02-25T12:05:42.445Z,4.55
2023-02-25T12:06:42.378Z,4.58
2023-02-25T12:07:47.844Z,4.60
2023-02-25T12:08:43.385Z,4.66
2023-02-25T12:09:42.334Z,4.67
2023-02-25T12:10:42.343Z,4.67
2023-02-25T12:11:42.308Z,4.66
2023-02-25T12:12:42.289Z,4.62
2023-02-25T12:13:42.354Z,4.67
2023-02-25T12:14:42.253Z,4.70
2023-02-25T12:15:42.264Z,4.70
2023-02-25T12:16:43.466Z,4.55
2023-02-25T12:17:42.250Z,4.58
2023-02-25T12:18:42.247Z,4.58
2023-02-25T12:19:42.224Z,4.56
2023-02-25T12:20:42.179Z,4.59
2023-02-25T12:21:42.177Z,4.60
2023-02-25T12:22:42.165Z,4.56
2023-02-25T12:23:42.147Z,4.62
2023-02-25T12:24:42.122Z,4.60
2023-02-25T12:25:42.115Z,4.58
2023-02-25T12:26:42.107Z,4.58
2023-02-25T12:27:42.110Z,4.60
2023-02-25T12:28:42.081Z,4.56
2023-02-25T12:29:42.068Z,4.55
2023-02-25T12:30:42.113Z,4.58
2023-02-25T12:31:42.183Z,4.60
2023-02-25T12:32:42.052Z,4.55
2023-02-25T12:33:42.047Z,4.49
2023-02-25T12:34:41.999Z,4.52
2023-02-25T12:35:41.981Z,4.55
2023-02-25T12:36:41.987Z,4.52
2023-02-25T12:37:41.963Z,4.42
2023-02-25T12:38:41.949Z,4.42
2023-02-25T12:39:41.939Z,4.32
2023-02-25T12:40:41.914Z,4.38
2023-02-25T12:41:41.902Z,4.44
2023-02-25T12:42:41.882Z,4.38
2023-02-25T12:43:41.884Z,4.37
2023-02-25T12:44:41.873Z,4.40
2023-02-25T12:45:41.865Z,4.41
2023-02-25T12:46:41.828Z,4.42
2023-02-25T12:47:41.842Z,4.42
2023-02-25T12:48:41.819Z,4.38
2023-02-25T12:49:41.829Z,4.37
2023-02-25T12:50:41.787Z,4.38
2023-02-25T12:51:41.764Z,4.37
2023-02-25T12:52:41.762Z,4.28
2023-02-25T12:53:41.731Z,4.13
2023-02-25T12:54:41.726Z,3.99
2023-02-25T12:55:41.715Z,3.94
2023-02-25T12:56:41.703Z,3.88
2023-02-25T12:57:41.718Z,3.87
2023-02-25T12:58:41.673Z,3.83
2023-02-25T12:59:41.662Z,3.80
2023-02-25T13:00:41.684Z,3.69
2023-02-25T13:01:41.648Z,3.69
2023-02-25T13:02:41.618Z,3.65
2023-02-25T13:03:41.675Z,3.63
2023-02-25T13:04:41.584Z,3.59
2023-02-25T13:05:41.601Z,3.51
2023-02-25T13:06:41.556Z,3.56
2023-02-25T13:07:41.557Z,3.62
2023-02-25T13:08:41.526Z,3.59
2023-02-25T13:09:41.517Z,3.65
2023-02-25T13:10:41.535Z,3.70
2023-02-25T13:12:07.284Z,3.74
2023-02-25T13:12:42.521Z,3.83
2023-02-25T13:13:41.475Z,3.88
2023-02-25T13:14:41.453Z,3.94
2023-02-25T13:15:41.431Z,3.94
2023-02-25T13:16:41.489Z,3.98
2023-02-25T13:17:41.415Z,4.01
2023-02-25T13:18:41.400Z,4.04
2023-02-25T13:19:41.386Z,4.06
2023-02-25T13:20:41.381Z,4.13
2023-02-25T13:21:41.395Z,4.17
2023-02-25T13:22:41.344Z,4.14
2023-02-25T13:23:41.332Z,4.16
2023-02-25T13:24:41.318Z,4.16
2023-02-25T13:25:41.305Z,4.10
2023-02-25T13:26:41.287Z,3.98